sensor_id;sensor_type;location;lat;lon;timestamp;P1;durP1;ratioP1;P2;durP2;ratioP2
40595;SDS011;26304;48.794;9.820;2023-05-19T00:00:41;4.30;;;2.47;;
40595;SDS011;26304;48.794;9.820;2023-05-19T00:06:26;4.05;;;2.30;;
40595;SDS011;26304;48.794;9.820;2023-05-19T00:12:11;4.60;;;2.45;;
40595;SDS011;26304;48.794;9.820;2023-05-19T00:17:55;2.47;;;2.25;;
40595;SDS011;26304;48.794;9.820;2023-05-19T00:23:39;4.47;;;2.47;;
40595;SDS011;26304;48.794;9.820;2023-05-19T00:29:21;3.35;;;2.20;;
40595;SDS011;26304;48.794;9.820;2023-05-19T00:35:04;2.95;;;2.47;;
40595;SDS011;26304;48.794;9.820;2023-05-19T00:40:48;4.15;;;2.42;;
40595;SDS011;26304;48.794;9.820;2023-05-19T00:46:31;3.75;;;2.20;;
40595;SDS011;26304;48.794;9.820;2023-05-19T00:52:13;3.95;;;2.45;;
40595;SDS011;26304;48.794;9.820;2023-05-19T00:58:00;3.63;;;2.33;;
40595;SDS011;26304;48.794;9.820;2023-05-19T01:03:42;6.38;;;2.45;;
40595;SDS011;26304;48.794;9.820;2023-05-19T01:09:26;3.80;;;2.47;;
40595;SDS011;26304;48.794;9.820;2023-05-19T01:15:12;3.03;;;2.45;;
40595;SDS011;26304;48.794;9.820;2023-05-19T01:20:57;2.80;;;2.28;;
40595;SDS011;26304;48.794;9.820;2023-05-19T01:33:07;3.22;;;2.50;;
40595;SDS011;26304;48.794;9.820;2023-05-19T01:38:51;5.68;;;2.92;;
40595;SDS011;26304;48.794;9.820;2023-05-19T01:44:36;3.38;;;2.50;;
40595;SDS011;26304;48.794;9.820;2023-05-19T01:50:21;3.00;;;2.58;;
40595;SDS011;26304;48.794;9.820;2023-05-19T01:56:04;3.13;;;2.50;;
40595;SDS011;26304;48.794;9.820;2023-05-19T02:01:52;4.82;;;2.55;;
40595;SDS011;26304;48.794;9.820;2023-05-19T02:07:42;2.97;;;2.47;;
40595;SDS011;26304;48.794;9.820;2023-05-19T02:13:32;4.00;;;2.38;;
40595;SDS011;26304;48.794;9.820;2023-05-19T02:19:22;2.63;;;2.35;;
40595;SDS011;26304;48.794;9.820;2023-05-19T02:25:07;2.85;;;2.15;;
40595;SDS011;26304;48.794;9.820;2023-05-19T02:30:50;2.60;;;2.40;;
40595;SDS011;26304;48.794;9.820;2023-05-19T02:36:33;2.30;;;2.10;;
40595;SDS011;26304;48.794;9.820;2023-05-19T02:42:18;3.83;;;2.40;;
40595;SDS011;26304;48.794;9.820;2023-05-19T02:48:00;2.55;;;2.35;;
40595;SDS011;26304;48.794;9.820;2023-05-19T02:53:43;2.30;;;2.00;;
40595;SDS011;26304;48.794;9.820;2023-05-19T02:59:27;3.53;;;2.50;;
40595;SDS011;26304;48.794;9.820;2023-05-19T03:05:09;2.67;;;2.22;;
40595;SDS011;26304;48.794;9.820;2023-05-19T03:10:52;3.88;;;2.55;;
40595;SDS011;26304;48.794;9.820;2023-05-19T03:16:35;4.40;;;2.67;;
40595;SDS011;26304;48.794;9.820;2023-05-19T03:22:20;4.28;;;2.58;;
40595;SDS011;26304;48.794;9.820;2023-05-19T03:28:03;4.38;;;2.53;;
40595;SDS011;26304;48.794;9.820;2023-05-19T03:33:47;3.53;;;2.63;;
40595;SDS011;26304;48.794;9.820;2023-05-19T03:39:29;3.22;;;2.30;;
40595;SDS011;26304;48.794;9.820;2023-05-19T03:45:12;3.38;;;2.10;;
40595;SDS011;26304;48.794;9.820;2023-05-19T03:50:55;2.70;;;2.20;;
40595;SDS011;26304;48.794;9.820;2023-05-19T03:56:38;3.40;;;2.33;;
40595;SDS011;26304;48.794;9.820;2023-05-19T04:02:21;4.05;;;2.55;;
40595;SDS011;26304;48.794;9.820;2023-05-19T04:08:05;3.92;;;2.88;;
40595;SDS011;26304;48.794;9.820;2023-05-19T04:13:48;4.97;;;2.63;;
40595;SDS011;26304;48.794;9.820;2023-05-19T04:19:30;4.88;;;2.72;;
40595;SDS011;26304;48.794;9.820;2023-05-19T04:25:14;2.88;;;2.40;;
40595;SDS011;26304;48.794;9.820;2023-05-19T04:30:56;3.13;;;2.42;;
40595;SDS011;26304;48.794;9.820;2023-05-19T04:36:39;2.90;;;2.40;;
40595;SDS011;26304;48.794;9.820;2023-05-19T04:42:23;4.15;;;2.80;;
40595;SDS011;26304;48.794;9.820;2023-05-19T04:48:10;3.58;;;2.50;;
40595;SDS011;26304;48.794;9.820;2023-05-19T04:53:53;3.53;;;2.55;;
40595;SDS011;26304;48.794;9.820;2023-05-19T04:59:37;3.50;;;2.58;;
40595;SDS011;26304;48.794;9.820;2023-05-19T05:05:19;2.88;;;2.28;;
40595;SDS011;26304;48.794;9.820;2023-05-19T05:11:02;3.97;;;2.60;;
40595;SDS011;26304;48.794;9.820;2023-05-19T05:16:46;5.82;;;3.03;;
40595;SDS011;26304;48.794;9.820;2023-05-19T05:22:29;2.72;;;2.38;;
40595;SDS011;26304;48.794;9.820;2023-05-19T05:28:12;3.00;;;2.25;;
40595;SDS011;26304;48.794;9.820;2023-05-19T05:33:56;2.90;;;2.17;;
40595;SDS011;26304;48.794;9.820;2023-05-19T05:39:39;4.80;;;2.15;;
40595;SDS011;26304;48.794;9.820;2023-05-19T05:45:21;3.30;;;2.05;;
40595;SDS011;26304;48.794;9.820;2023-05-19T05:51:05;2.90;;;2.00;;
40595;SDS011;26304;48.794;9.820;2023-05-19T05:56:49;3.17;;;2.50;;
40595;SDS011;26304;48.794;9.820;2023-05-19T06:02:31;3.20;;;2.00;;
40595;SDS011;26304;48.794;9.820;2023-05-19T06:08:15;2.80;;;1.80;;
40595;SDS011;26304;48.794;9.820;2023-05-19T06:13:58;2.33;;;1.75;;
40595;SDS011;26304;48.794;9.820;2023-05-19T06:19:40;2.30;;;2.03;;
40595;SDS011;26304;48.794;9.820;2023-05-19T06:25:24;2.50;;;2.08;;
40595;SDS011;26304;48.794;9.820;2023-05-19T06:31:06;3.10;;;1.85;;
40595;SDS011;26304;48.794;9.820;2023-05-19T06:36:49;3.03;;;1.90;;
40595;SDS011;26304;48.794;9.820;2023-05-19T06:42:32;7.18;;;2.47;;
40595;SDS011;26304;48.794;9.820;2023-05-19T06:48:15;6.25;;;2.42;;
40595;SDS011;26304;48.794;9.820;2023-05-19T06:53:57;4.63;;;3.03;;
40595;SDS011;26304;48.794;9.820;2023-05-19T06:59:41;7.22;;;3.03;;
40595;SDS011;26304;48.794;9.820;2023-05-19T07:05:26;3.92;;;3.00;;
40595;SDS011;26304;48.794;9.820;2023-05-19T07:11:08;4.95;;;2.67;;
40595;SDS011;26304;48.794;9.820;2023-05-19T07:16:53;3.95;;;2.67;;
40595;SDS011;26304;48.794;9.820;2023-05-19T07:22:35;7.00;;;2.47;;
40595;SDS011;26304;48.794;9.820;2023-05-19T07:28:19;3.35;;;2.30;;
40595;SDS011;26304;48.794;9.820;2023-05-19T07:34:03;3.95;;;2.55;;
40595;SDS011;26304;48.794;9.820;2023-05-19T07:39:45;5.32;;;2.45;;
40595;SDS011;26304;48.794;9.820;2023-05-19T07:45:28;3.97;;;2.72;;
40595;SDS011;26304;48.794;9.820;2023-05-19T07:51:12;5.43;;;2.63;;
40595;SDS011;26304;48.794;9.820;2023-05-19T07:56:55;4.88;;;2.65;;
40595;SDS011;26304;48.794;9.820;2023-05-19T08:02:38;5.35;;;3.22;;
40595;SDS011;26304;48.794;9.820;2023-05-19T08:08:21;3.35;;;2.30;;
40595;SDS011;26304;48.794;9.820;2023-05-19T08:14:04;4.30;;;2.30;;
40595;SDS011;26304;48.794;9.820;2023-05-19T08:19:46;4.13;;;2.67;;
40595;SDS011;26304;48.794;9.820;2023-05-19T08:25:30;4.00;;;2.20;;
40595;SDS011;26304;48.794;9.820;2023-05-19T08:31:13;3.22;;;2.25;;
40595;SDS011;26304;48.794;9.820;2023-05-19T08:36:55;3.65;;;2.40;;
40595;SDS011;26304;48.794;9.820;2023-05-19T08:42:39;2.35;;;1.85;;
40595;SDS011;26304;48.794;9.820;2023-05-19T08:48:21;4.15;;;2.38;;
40595;SDS011;26304;48.794;9.820;2023-05-19T08:54:07;4.50;;;2.55;;
40595;SDS011;26304;48.794;9.820;2023-05-19T08:59:56;3.95;;;2.35;;
40595;SDS011;26304;48.794;9.820;2023-05-19T09:05:40;2.88;;;1.95;;
40595;SDS011;26304;48.794;9.820;2023-05-19T09:11:22;3.70;;;2.08;;
40595;SDS011;26304;48.794;9.820;2023-05-19T09:17:07;2.42;;;2.20;;
40595;SDS011;26304;48.794;9.820;2023-05-19T09:22:49;3.15;;;2.40;;
40595;SDS011;26304;48.794;9.820;2023-05-19T09:28:32;2.40;;;1.80;;
40595;SDS011;26304;48.794;9.820;2023-05-19T09:34:17;3.17;;;1.95;;
40595;SDS011;26304;48.794;9.820;2023-05-19T09:40:00;2.58;;;2.00;;
40595;SDS011;26304;48.794;9.820;2023-05-19T09:45:45;3.03;;;2.30;;
40595;SDS011;26304;48.794;9.820;2023-05-19T09:51:29;2.40;;;1.95;;
40595;SDS011;26304;48.794;9.820;2023-05-19T09:57:12;2.15;;;1.90;;
40595;SDS011;26304;48.794;9.820;2023-05-19T10:02:54;3.65;;;1.75;;
40595;SDS011;26304;48.794;9.820;2023-05-19T10:08:39;2.97;;;2.35;;
40595;SDS011;26304;48.794;9.820;2023-05-19T10:14:24;3.72;;;1.98;;
40595;SDS011;26304;48.794;9.820;2023-05-19T10:20:08;3.50;;;2.05;;
40595;SDS011;26304;48.794;9.820;2023-05-19T10:25:54;4.20;;;1.77;;
40595;SDS011;26304;48.794;9.820;2023-05-19T10:31:39;3.63;;;1.77;;
40595;SDS011;26304;48.794;9.820;2023-05-19T10:37:25;5.32;;;2.05;;
40595;SDS011;26304;48.794;9.820;2023-05-19T10:43:21;3.65;;;2.00;;
40595;SDS011;26304;48.794;9.820;2023-05-19T10:49:18;3.30;;;1.75;;
40595;SDS011;26304;48.794;9.820;2023-05-19T10:55:01;3.50;;;2.00;;
40595;SDS011;26304;48.794;9.820;2023-05-19T11:00:46;3.50;;;1.98;;
40595;SDS011;26304;48.794;9.820;2023-05-19T11:06:28;3.08;;;1.63;;
40595;SDS011;26304;48.794;9.820;2023-05-19T11:12:11;2.13;;;1.58;;
40595;SDS011;26304;48.794;9.820;2023-05-19T11:17:55;5.68;;;2.00;;
40595;SDS011;26304;48.794;9.820;2023-05-19T11:23:38;5.03;;;1.67;;
40595;SDS011;26304;48.794;9.820;2023-05-19T11:29:20;3.00;;;2.00;;
40595;SDS011;26304;48.794;9.820;2023-05-19T11:35:04;5.78;;;2.03;;
40595;SDS011;26304;48.794;9.820;2023-05-19T11:40:51;6.13;;;1.95;;
40595;SDS011;26304;48.794;9.820;2023-05-19T11:46:34;6.03;;;1.80;;
40595;SDS011;26304;48.794;9.820;2023-05-19T11:52:18;3.15;;;1.90;;
40595;SDS011;26304;48.794;9.820;2023-05-19T11:58:03;6.60;;;2.42;;
40595;SDS011;26304;48.794;9.820;2023-05-19T12:03:45;2.38;;;1.90;;
40595;SDS011;26304;48.794;9.820;2023-05-19T12:09:31;2.08;;;1.58;;
40595;SDS011;26304;48.794;9.820;2023-05-19T12:15:13;3.20;;;1.60;;
40595;SDS011;26304;48.794;9.820;2023-05-19T12:20:56;4.03;;;2.00;;
40595;SDS011;26304;48.794;9.820;2023-05-19T12:26:40;1.73;;;1.63;;
40595;SDS011;26304;48.794;9.820;2023-05-19T12:32:23;2.25;;;2.05;;
40595;SDS011;26304;48.794;9.820;2023-05-19T12:38:06;2.72;;;1.45;;
40595;SDS011;26304;48.794;9.820;2023-05-19T12:43:50;2.95;;;1.70;;
40595;SDS011;26304;48.794;9.820;2023-05-19T12:49:33;2.20;;;1.25;;
40595;SDS011;26304;48.794;9.820;2023-05-19T12:55:16;4.32;;;1.92;;
40595;SDS011;26304;48.794;9.820;2023-05-19T13:01:01;2.63;;;1.60;;
40595;SDS011;26304;48.794;9.820;2023-05-19T13:06:44;2.97;;;1.63;;
40595;SDS011;26304;48.794;9.820;2023-05-19T13:12:29;2.45;;;1.80;;
40595;SDS011;26304;48.794;9.820;2023-05-19T13:18:13;1.80;;;1.58;;
40595;SDS011;26304;48.794;9.820;2023-05-19T13:23:55;1.95;;;1.65;;
40595;SDS011;26304;48.794;9.820;2023-05-19T13:29:37;2.85;;;1.52;;
40595;SDS011;26304;48.794;9.820;2023-05-19T13:35:21;1.85;;;1.60;;
40595;SDS011;26304;48.794;9.820;2023-05-19T13:41:04;2.38;;;1.33;;
40595;SDS011;26304;48.794;9.820;2023-05-19T13:46:47;2.55;;;1.60;;
40595;SDS011;26304;48.794;9.820;2023-05-19T13:52:31;1.98;;;1.65;;
40595;SDS011;26304;48.794;9.820;2023-05-19T13:58:13;2.80;;;1.88;;
40595;SDS011;26304;48.794;9.820;2023-05-19T14:03:56;3.17;;;2.42;;
40595;SDS011;26304;48.794;9.820;2023-05-19T14:09:40;2.60;;;2.40;;
40595;SDS011;26304;48.794;9.820;2023-05-19T14:15:22;5.40;;;2.58;;
40595;SDS011;26304;48.794;9.820;2023-05-19T14:21:06;6.72;;;3.17;;
40595;SDS011;26304;48.794;9.820;2023-05-19T14:26:50;6.40;;;2.78;;
40595;SDS011;26304;48.794;9.820;2023-05-19T14:32:33;3.63;;;2.50;;
40595;SDS011;26304;48.794;9.820;2023-05-19T14:38:16;2.65;;;2.30;;
40595;SDS011;26304;48.794;9.820;2023-05-19T14:43:59;3.45;;;2.20;;
40595;SDS011;26304;48.794;9.820;2023-05-19T14:49:42;2.53;;;2.20;;
40595;SDS011;26304;48.794;9.820;2023-05-19T14:55:24;7.28;;;2.60;;
40595;SDS011;26304;48.794;9.820;2023-05-19T15:01:08;2.63;;;2.40;;
40595;SDS011;26304;48.794;9.820;2023-05-19T15:06:50;2.35;;;2.15;;
40595;SDS011;26304;48.794;9.820;2023-05-19T15:12:33;2.17;;;1.98;;
40595;SDS011;26304;48.794;9.820;2023-05-19T15:18:17;2.75;;;2.28;;
40595;SDS011;26304;48.794;9.820;2023-05-19T15:23:59;2.30;;;2.10;;
40595;SDS011;26304;48.794;9.820;2023-05-19T15:29:41;2.17;;;1.80;;
40595;SDS011;26304;48.794;9.820;2023-05-19T15:35:25;2.58;;;2.10;;
40595;SDS011;26304;48.794;9.820;2023-05-19T15:41:08;4.10;;;2.60;;
40595;SDS011;26304;48.794;9.820;2023-05-19T15:46:51;2.72;;;1.98;;
40595;SDS011;26304;48.794;9.820;2023-05-19T15:52:34;2.25;;;2.05;;
40595;SDS011;26304;48.794;9.820;2023-05-19T15:58:17;2.13;;;1.92;;
40595;SDS011;26304;48.794;9.820;2023-05-19T16:03:59;2.40;;;2.13;;
40595;SDS011;26304;48.794;9.820;2023-05-19T16:09:44;3.75;;;2.00;;
40595;SDS011;26304;48.794;9.820;2023-05-19T16:15:27;2.42;;;1.98;;
40595;SDS011;26304;48.794;9.820;2023-05-19T16:21:09;2.47;;;2.28;;
40595;SDS011;26304;48.794;9.820;2023-05-19T16:26:53;2.72;;;2.53;;
40595;SDS011;26304;48.794;9.820;2023-05-19T16:32:35;2.47;;;2.28;;
40595;SDS011;26304;48.794;9.820;2023-05-19T16:38:18;4.28;;;2.60;;
40595;SDS011;26304;48.794;9.820;2023-05-19T16:44:01;3.33;;;2.30;;
40595;SDS011;26304;48.794;9.820;2023-05-19T16:49:44;3.35;;;2.17;;
40595;SDS011;26304;48.794;9.820;2023-05-19T16:55:26;3.85;;;2.28;;
40595;SDS011;26304;48.794;9.820;2023-05-19T17:01:10;4.22;;;2.10;;
40595;SDS011;26304;48.794;9.820;2023-05-19T17:06:52;3.33;;;2.15;;
40595;SDS011;26304;48.794;9.820;2023-05-19T17:12:35;3.00;;;2.13;;
40595;SDS011;26304;48.794;9.820;2023-05-19T17:18:18;2.28;;;1.90;;
40595;SDS011;26304;48.794;9.820;2023-05-19T17:24:01;2.10;;;1.90;;
40595;SDS011;26304;48.794;9.820;2023-05-19T17:29:43;2.10;;;1.90;;
40595;SDS011;26304;48.794;9.820;2023-05-19T17:35:27;2.15;;;1.88;;
40595;SDS011;26304;48.794;9.820;2023-05-19T17:41:10;2.38;;;2.10;;
40595;SDS011;26304;48.794;9.820;2023-05-19T17:46:53;1.77;;;1.67;;
40595;SDS011;26304;48.794;9.820;2023-05-19T17:52:38;2.47;;;1.85;;
40595;SDS011;26304;48.794;9.820;2023-05-19T17:58:21;2.13;;;1.90;;
40595;SDS011;26304;48.794;9.820;2023-05-19T18:04:04;2.35;;;1.80;;
40595;SDS011;26304;48.794;9.820;2023-05-19T18:09:49;2.00;;;1.90;;
40595;SDS011;26304;48.794;9.820;2023-05-19T18:15:32;2.60;;;1.80;;
40595;SDS011;26304;48.794;9.820;2023-05-19T18:21:16;4.20;;;2.55;;
40595;SDS011;26304;48.794;9.820;2023-05-19T18:27:00;4.22;;;3.85;;
40595;SDS011;26304;48.794;9.820;2023-05-19T18:32:43;3.83;;;2.92;;
40595;SDS011;26304;48.794;9.820;2023-05-19T18:38:25;3.42;;;2.47;;
40595;SDS011;26304;48.794;9.820;2023-05-19T18:44:10;3.05;;;2.38;;
40595;SDS011;26304;48.794;9.820;2023-05-19T18:49:52;4.80;;;2.33;;
40595;SDS011;26304;48.794;9.820;2023-05-19T18:55:35;2.53;;;2.30;;
40595;SDS011;26304;48.794;9.820;2023-05-19T19:01:19;3.08;;;2.30;;
40595;SDS011;26304;48.794;9.820;2023-05-19T19:07:01;6.10;;;3.47;;
40595;SDS011;26304;48.794;9.820;2023-05-19T19:12:43;6.03;;;2.80;;
40595;SDS011;26304;48.794;9.820;2023-05-19T19:18:27;3.60;;;2.90;;
40595;SDS011;26304;48.794;9.820;2023-05-19T19:24:10;3.67;;;2.42;;
40595;SDS011;26304;48.794;9.820;2023-05-19T19:29:53;2.40;;;1.90;;
40595;SDS011;26304;48.794;9.820;2023-05-19T19:35:37;2.65;;;2.25;;
40595;SDS011;26304;48.794;9.820;2023-05-19T19:41:19;4.25;;;2.00;;
40595;SDS011;26304;48.794;9.820;2023-05-19T19:47:02;2.03;;;1.90;;
40595;SDS011;26304;48.794;9.820;2023-05-19T19:52:47;2.13;;;1.92;;
40595;SDS011;26304;48.794;9.820;2023-05-19T19:58:30;2.05;;;1.77;;
40595;SDS011;26304;48.794;9.820;2023-05-19T20:04:12;2.65;;;2.20;;
40595;SDS011;26304;48.794;9.820;2023-05-19T20:09:56;4.32;;;2.92;;
40595;SDS011;26304;48.794;9.820;2023-05-19T20:15:39;3.15;;;2.72;;
40595;SDS011;26304;48.794;9.820;2023-05-19T20:21:21;3.03;;;2.72;;
40595;SDS011;26304;48.794;9.820;2023-05-19T20:27:05;4.22;;;3.20;;
40595;SDS011;26304;48.794;9.820;2023-05-19T20:32:49;2.65;;;2.40;;
40595;SDS011;26304;48.794;9.820;2023-05-19T20:38:31;4.25;;;2.70;;
40595;SDS011;26304;48.794;9.820;2023-05-19T20:44:15;4.82;;;4.00;;
40595;SDS011;26304;48.794;9.820;2023-05-19T20:49:57;4.53;;;3.90;;
40595;SDS011;26304;48.794;9.820;2023-05-19T20:55:40;4.05;;;3.75;;
40595;SDS011;26304;48.794;9.820;2023-05-19T21:01:26;4.05;;;3.63;;
40595;SDS011;26304;48.794;9.820;2023-05-19T21:07:09;4.07;;;3.78;;
40595;SDS011;26304;48.794;9.820;2023-05-19T21:12:52;4.28;;;3.97;;
40595;SDS011;26304;48.794;9.820;2023-05-19T21:18:35;3.75;;;3.55;;
40595;SDS011;26304;48.794;9.820;2023-05-19T21:24:18;4.38;;;3.78;;
40595;SDS011;26304;48.794;9.820;2023-05-19T21:30:00;3.63;;;3.33;;
40595;SDS011;26304;48.794;9.820;2023-05-19T21:35:44;3.63;;;3.33;;
40595;SDS011;26304;48.794;9.820;2023-05-19T21:41:27;4.53;;;3.65;;
40595;SDS011;26304;48.794;9.820;2023-05-19T21:47:10;3.10;;;2.78;;
40595;SDS011;26304;48.794;9.820;2023-05-19T21:52:54;4.15;;;2.85;;
40595;SDS011;26304;48.794;9.820;2023-05-19T21:58:37;2.70;;;2.50;;
40595;SDS011;26304;48.794;9.820;2023-05-19T22:04:19;2.90;;;2.60;;
40595;SDS011;26304;48.794;9.820;2023-05-19T22:10:04;3.13;;;2.60;;
40595;SDS011;26304;48.794;9.820;2023-05-19T22:15:48;2.40;;;2.20;;
40595;SDS011;26304;48.794;9.820;2023-05-19T22:21:30;3.20;;;2.55;;
40595;SDS011;26304;48.794;9.820;2023-05-19T22:27:14;3.20;;;2.65;;
40595;SDS011;26304;48.794;9.820;2023-05-19T22:32:56;2.70;;;2.33;;
40595;SDS011;26304;48.794;9.820;2023-05-19T22:38:39;3.47;;;2.67;;
40595;SDS011;26304;48.794;9.820;2023-05-19T22:44:23;3.17;;;2.63;;
40595;SDS011;26304;48.794;9.820;2023-05-19T22:50:05;2.58;;;2.38;;
40595;SDS011;26304;48.794;9.820;2023-05-19T22:55:50;4.82;;;2.60;;
40595;SDS011;26304;48.794;9.820;2023-05-19T23:01:33;2.70;;;2.50;;
40595;SDS011;26304;48.794;9.820;2023-05-19T23:07:16;2.60;;;2.40;;
40595;SDS011;26304;48.794;9.820;2023-05-19T23:12:58;2.60;;;2.40;;
40595;SDS011;26304;48.794;9.820;2023-05-19T23:18:42;2.30;;;2.20;;
40595;SDS011;26304;48.794;9.820;2023-05-19T23:24:24;2.42;;;2.30;;
40595;SDS011;26304;48.794;9.820;2023-05-19T23:30:07;2.75;;;2.55;;
40595;SDS011;26304;48.794;9.820;2023-05-19T23:35:53;3.42;;;2.83;;
40595;SDS011;26304;48.794;9.820;2023-05-19T23:41:35;3.10;;;2.90;;
40595;SDS011;26304;48.794;9.820;2023-05-19T23:47:17;3.00;;;2.70;;
40595;SDS011;26304;48.794;9.820;2023-05-19T23:53:01;2.72;;;2.53;;
40595;SDS011;26304;48.794;9.820;2023-05-19T23:58:43;2.80;;;2.60;;
